createdAt,value
2023-03-31T00:02:26.374Z,9.7
2023-03-31T00:18:01.130Z,9.8
2023-03-31T00:33:35.409Z,10
2023-03-31T00:49:09.447Z,10.2
2023-03-31T01:04:43.483Z,10.5
2023-03-31T01:20:17.495Z,10.7
2023-03-31T01:35:51.720Z,10.7
2023-03-31T01:51:25.734Z,10.7
2023-03-31T02:06:59.790Z,10.6
2023-03-31T02:22:33.813Z,10.6
2023-03-31T02:38:07.897Z,10.5
2023-03-31T02:53:42.039Z,10.5
2023-03-31T03:09:16.076Z,10.7
2023-03-31T03:24:50.159Z,10.8
2023-03-31T03:40:24.218Z,10.8
2023-03-31T03:55:58.223Z,10.8
2023-03-31T04:11:32.277Z,10.7
2023-03-31T04:27:06.450Z,10.5
2023-03-31T04:42:40.479Z,10.3
2023-03-31T04:58:14.616Z,10.2
2023-03-31T05:13:48.668Z,10
2023-03-31T05:29:22.793Z,10.1
2023-03-31T05:44:56.810Z,10.1
2023-03-31T06:00:31.005Z,10.4
2023-03-31T06:16:05.370Z,10.7
2023-03-31T06:31:39.723Z,11
2023-03-31T06:47:13.932Z,11.8
2023-03-31T07:02:48.635Z,12.5
2023-03-31T07:18:23.129Z,12.4
2023-03-31T07:33:57.183Z,12.2
2023-03-31T07:49:31.318Z,12.2
2023-03-31T08:05:05.543Z,12.5
2023-03-31T08:20:39.644Z,12.9
2023-03-31T08:36:13.978Z,13.2
2023-03-31T08:51:48.084Z,13.3
2023-03-31T09:07:22.568Z,13.1
2023-03-31T09:22:56.641Z,13.1
2023-03-31T09:38:30.742Z,13
2023-03-31T09:54:04.818Z,12.8
2023-03-31T10:09:38.879Z,12.4
2023-03-31T10:25:13.523Z,12.1
2023-03-31T10:40:47.727Z,11.9
2023-03-31T10:56:21.814Z,11.9
2023-03-31T11:11:55.886Z,11.9
2023-03-31T11:27:29.952Z,13.1
2023-03-31T11:43:04.058Z,12.8
2023-03-31T11:58:38.145Z,13.4
2023-03-31T12:14:12.253Z,14.5
2023-03-31T12:29:46.367Z,15.2
2023-03-31T12:45:20.341Z,15.4
2023-03-31T13:00:54.634Z,15.6
2023-03-31T13:16:29.013Z,16
2023-03-31T13:32:03.485Z,14.9
2023-03-31T13:47:37.764Z,14.7
2023-03-31T14:03:12.317Z,14
2023-03-31T14:18:46.390Z,13
2023-03-31T14:34:20.455Z,13.5
2023-03-31T14:49:54.548Z,13.3
2023-03-31T15:05:28.863Z,13.6
2023-03-31T15:21:03.013Z,13.9
2023-03-31T15:36:37.320Z,13.6
2023-03-31T15:52:11.407Z,13.8
2023-03-31T16:07:45.505Z,13.9
2023-03-31T16:23:19.649Z,13.8
2023-03-31T16:38:53.825Z,13.9
2023-03-31T16:54:28.114Z,13.4
2023-03-31T17:10:02.214Z,12.9
2023-03-31T17:25:36.259Z,12.4
2023-03-31T17:41:10.330Z,12.2
2023-03-31T17:56:44.404Z,12
2023-03-31T18:12:18.538Z,11.5
2023-03-31T18:27:52.603Z,11.2
2023-03-31T18:43:26.711Z,11
2023-03-31T18:59:00.832Z,10.9
2023-03-31T19:14:34.867Z,10.8
2023-03-31T19:30:08.911Z,10.7
2023-03-31T19:45:43.018Z,10.7
2023-03-31T20:01:17.388Z,10.7
2023-03-31T20:16:51.613Z,10.7
2023-03-31T20:32:25.958Z,10.6
2023-03-31T20:48:00.257Z,10.5
2023-03-31T21:03:34.611Z,10.3
2023-03-31T21:19:08.694Z,10.3
2023-03-31T21:34:42.754Z,10.2
2023-03-31T21:50:16.752Z,10.2
2023-03-31T22:05:50.816Z,10.2
2023-03-31T22:21:24.869Z,10.2
2023-03-31T22:36:58.919Z,10.1
2023-03-31T22:52:32.916Z,10.1
2023-03-31T23:08:06.947Z,10.1
2023-03-31T23:23:40.982Z,10.3
2023-03-31T23:39:14.999Z,10.3
2023-03-31T23:54:49.045Z,10.3
